sensor_id;sensor_type;location;lat;lon;timestamp;P1;durP1;ratioP1;P2;durP2;ratioP2
69253;SDS011;56364;41.816;12.448;2022-12-11T08:53:24;15.53;;;2.10;;
69253;SDS011;56364;41.816;12.448;2022-12-11T09:11:28;8.25;;;2.28;;
69253;SDS011;56364;41.816;12.448;2022-12-11T09:14:07;9.60;;;1.95;;
69253;SDS011;56364;41.816;12.448;2022-12-11T09:19:02;10.48;;;1.60;;
69253;SDS011;56364;41.816;12.448;2022-12-11T09:21:28;10.60;;;1.50;;
69253;SDS011;56364;41.816;12.448;2022-12-11T09:24:00;14.68;;;2.05;;
69253;SDS011;56364;41.816;12.448;2022-12-11T09:26:26;12.73;;;1.30;;
69253;SDS011;56364;41.816;12.448;2022-12-11T09:28:54;20.27;;;1.83;;
69253;SDS011;56364;41.816;12.448;2022-12-11T09:31:23;2.80;;;1.05;;
69253;SDS011;56364;41.816;12.448;2022-12-11T09:33:50;11.48;;;1.85;;
69253;SDS011;56364;41.816;12.448;2022-12-11T09:36:18;8.57;;;1.38;;
69253;SDS011;56364;41.816;12.448;2022-12-11T09:38:48;12.85;;;1.60;;
69253;SDS011;56364;41.816;12.448;2022-12-11T09:46:44;9.73;;;1.40;;
69253;SDS011;56364;41.816;12.448;2022-12-11T10:22:49;8.90;;;1.15;;
69253;SDS011;56364;41.816;12.448;2022-12-11T10:25:26;12.85;;;1.75;;
69253;SDS011;56364;41.816;12.448;2022-12-11T10:27:53;9.57;;;2.08;;
69253;SDS011;56364;41.816;12.448;2022-12-11T10:30:30;4.57;;;1.50;;
69253;SDS011;56364;41.816;12.448;2022-12-11T10:33:19;9.40;;;2.17;;
69253;SDS011;56364;41.816;12.448;2022-12-11T10:38:19;6.78;;;1.85;;
69253;SDS011;56364;41.816;12.448;2022-12-11T10:40:50;8.27;;;1.77;;
69253;SDS011;56364;41.816;12.448;2022-12-11T10:43:17;6.85;;;1.48;;
69253;SDS011;56364;41.816;12.448;2022-12-11T10:45:52;9.93;;;1.85;;
69253;SDS011;56364;41.816;12.448;2022-12-11T10:48:18;11.18;;;2.00;;
69253;SDS011;56364;41.816;12.448;2022-12-11T10:50:55;9.77;;;2.03;;
69253;SDS011;56364;41.816;12.448;2022-12-11T10:53:21;15.38;;;2.28;;
69253;SDS011;56364;41.816;12.448;2022-12-11T10:55:49;4.05;;;0.80;;
69253;SDS011;56364;41.816;12.448;2022-12-11T11:00:42;9.30;;;1.30;;
69253;SDS011;56364;41.816;12.448;2022-12-11T11:03:24;2.97;;;0.73;;
69253;SDS011;56364;41.816;12.448;2022-12-11T11:06:04;9.63;;;1.95;;
69253;SDS011;56364;41.816;12.448;2022-12-11T11:08:38;16.88;;;1.67;;
69253;SDS011;56364;41.816;12.448;2022-12-11T11:11:04;14.05;;;2.15;;
69253;SDS011;56364;41.816;12.448;2022-12-11T11:13:33;13.93;;;3.10;;
69253;SDS011;56364;41.816;12.448;2022-12-11T11:16:06;10.18;;;1.95;;
69253;SDS011;56364;41.816;12.448;2022-12-11T11:18:47;9.48;;;1.25;;
69253;SDS011;56364;41.816;12.448;2022-12-11T11:21:20;9.15;;;1.77;;
69253;SDS011;56364;41.816;12.448;2022-12-11T11:23:46;4.72;;;1.38;;
69253;SDS011;56364;41.816;12.448;2022-12-11T11:26:22;7.93;;;1.55;;
69253;SDS011;56364;41.816;12.448;2022-12-11T11:28:54;6.22;;;1.35;;
69253;SDS011;56364;41.816;12.448;2022-12-11T11:31:30;12.00;;;2.00;;
69253;SDS011;56364;41.816;12.448;2022-12-11T11:34:00;7.63;;;2.05;;
69253;SDS011;56364;41.816;12.448;2022-12-11T11:36:29;8.00;;;1.42;;
69253;SDS011;56364;41.816;12.448;2022-12-11T11:39:27;5.45;;;0.93;;
69253;SDS011;56364;41.816;12.448;2022-12-11T11:42:12;21.02;;;1.80;;
69253;SDS011;56364;41.816;12.448;2022-12-11T11:44:47;9.10;;;1.60;;
69253;SDS011;56364;41.816;12.448;2022-12-11T11:47:20;11.45;;;1.90;;
69253;SDS011;56364;41.816;12.448;2022-12-11T11:49:51;6.18;;;1.63;;
69253;SDS011;56364;41.816;12.448;2022-12-11T11:57:17;6.47;;;2.08;;
69253;SDS011;56364;41.816;12.448;2022-12-11T11:59:52;13.60;;;1.35;;
69253;SDS011;56364;41.816;12.448;2022-12-11T12:02:22;10.32;;;1.80;;
69253;SDS011;56364;41.816;12.448;2022-12-11T12:04:49;9.18;;;1.88;;
69253;SDS011;56364;41.816;12.448;2022-12-11T12:10:31;8.10;;;1.23;;
69253;SDS011;56364;41.816;12.448;2022-12-11T12:34:11;6.88;;;1.58;;
69253;SDS011;56364;41.816;12.448;2022-12-11T12:39:21;8.07;;;1.40;;
69253;SDS011;56364;41.816;12.448;2022-12-11T12:42:10;12.20;;;1.30;;
69253;SDS011;56364;41.816;12.448;2022-12-11T12:47:12;11.15;;;1.80;;
69253;SDS011;56364;41.816;12.448;2022-12-11T12:49:46;16.98;;;2.13;;
69253;SDS011;56364;41.816;12.448;2022-12-11T12:54:43;15.73;;;2.00;;
69253;SDS011;56364;41.816;12.448;2022-12-11T12:57:30;12.82;;;1.80;;
69253;SDS011;56364;41.816;12.448;2022-12-11T12:59:57;6.80;;;1.60;;
69253;SDS011;56364;41.816;12.448;2022-12-11T13:02:23;14.38;;;2.72;;
69253;SDS011;56364;41.816;12.448;2022-12-11T13:05:00;6.25;;;1.67;;
69253;SDS011;56364;41.816;12.448;2022-12-11T13:07:30;9.27;;;1.73;;
69253;SDS011;56364;41.816;12.448;2022-12-11T13:09:58;13.57;;;1.60;;
69253;SDS011;56364;41.816;12.448;2022-12-11T13:12:32;4.32;;;1.20;;
69253;SDS011;56364;41.816;12.448;2022-12-11T13:14:58;11.55;;;1.02;;
69253;SDS011;56364;41.816;12.448;2022-12-11T13:17:34;9.10;;;1.55;;
69253;SDS011;56364;41.816;12.448;2022-12-11T13:20:23;15.93;;;1.92;;
69253;SDS011;56364;41.816;12.448;2022-12-11T14:01:54;9.15;;;1.33;;
69253;SDS011;56364;41.816;12.448;2022-12-11T14:05:01;13.45;;;1.15;;
69253;SDS011;56364;41.816;12.448;2022-12-11T16:50:18;10.13;;;2.17;;
69253;SDS011;56364;41.816;12.448;2022-12-11T16:52:50;17.95;;;2.83;;
69253;SDS011;56364;41.816;12.448;2022-12-11T16:55:17;6.15;;;2.10;;
69253;SDS011;56364;41.816;12.448;2022-12-11T16:57:48;3.65;;;1.73;;
69253;SDS011;56364;41.816;12.448;2022-12-11T17:00:14;7.63;;;1.98;;
69253;SDS011;56364;41.816;12.448;2022-12-11T17:05:06;7.53;;;1.42;;
69253;SDS011;56364;41.816;12.448;2022-12-11T17:07:32;3.72;;;1.65;;
69253;SDS011;56364;41.816;12.448;2022-12-11T17:09:58;7.40;;;2.08;;
69253;SDS011;56364;41.816;12.448;2022-12-11T17:12:26;10.48;;;2.03;;
69253;SDS011;56364;41.816;12.448;2022-12-11T17:14:53;4.10;;;1.73;;
69253;SDS011;56364;41.816;12.448;2022-12-11T17:17:19;11.48;;;1.77;;
69253;SDS011;56364;41.816;12.448;2022-12-11T17:22:12;3.60;;;1.42;;
69253;SDS011;56364;41.816;12.448;2022-12-11T17:24:38;5.28;;;1.17;;
69253;SDS011;56364;41.816;12.448;2022-12-11T17:27:04;7.43;;;2.03;;
69253;SDS011;56364;41.816;12.448;2022-12-11T17:29:30;8.45;;;2.22;;
69253;SDS011;56364;41.816;12.448;2022-12-11T17:31:59;9.80;;;2.42;;
69253;SDS011;56364;41.816;12.448;2022-12-11T17:34:27;5.03;;;1.55;;
69253;SDS011;56364;41.816;12.448;2022-12-11T17:39:19;6.97;;;1.92;;
69253;SDS011;56364;41.816;12.448;2022-12-11T17:41:49;8.98;;;1.73;;
69253;SDS011;56364;41.816;12.448;2022-12-11T17:44:16;9.70;;;1.90;;
69253;SDS011;56364;41.816;12.448;2022-12-11T17:46:46;12.98;;;1.92;;
69253;SDS011;56364;41.816;12.448;2022-12-11T17:49:15;5.80;;;2.08;;
69253;SDS011;56364;41.816;12.448;2022-12-11T17:51:44;11.23;;;1.92;;
69253;SDS011;56364;41.816;12.448;2022-12-11T17:54:16;11.25;;;2.00;;
69253;SDS011;56364;41.816;12.448;2022-12-11T17:59:14;6.55;;;1.52;;
69253;SDS011;56364;41.816;12.448;2022-12-11T18:01:41;9.35;;;1.50;;
69253;SDS011;56364;41.816;12.448;2022-12-11T18:04:10;9.35;;;1.77;;
69253;SDS011;56364;41.816;12.448;2022-12-11T18:06:39;3.45;;;1.05;;
69253;SDS011;56364;41.816;12.448;2022-12-11T18:09:06;2.30;;;1.42;;
69253;SDS011;56364;41.816;12.448;2022-12-11T18:11:33;6.20;;;1.02;;
69253;SDS011;56364;41.816;12.448;2022-12-11T18:13:59;3.83;;;1.02;;
69253;SDS011;56364;41.816;12.448;2022-12-11T18:18:55;4.53;;;0.98;;
69253;SDS011;56364;41.816;12.448;2022-12-11T18:21:23;2.05;;;0.95;;
69253;SDS011;56364;41.816;12.448;2022-12-11T18:23:50;4.38;;;1.90;;
69253;SDS011;56364;41.816;12.448;2022-12-11T18:26:21;7.65;;;1.70;;
69253;SDS011;56364;41.816;12.448;2022-12-11T18:28:51;9.77;;;1.45;;
69253;SDS011;56364;41.816;12.448;2022-12-11T18:31:18;8.80;;;1.40;;
69253;SDS011;56364;41.816;12.448;2022-12-11T18:33:45;4.32;;;0.57;;
69253;SDS011;56364;41.816;12.448;2022-12-11T18:36:12;8.07;;;1.73;;
69253;SDS011;56364;41.816;12.448;2022-12-11T18:38:39;2.90;;;0.95;;
69253;SDS011;56364;41.816;12.448;2022-12-11T18:41:08;6.53;;;1.55;;
69253;SDS011;56364;41.816;12.448;2022-12-11T18:43:38;4.78;;;1.08;;
69253;SDS011;56364;41.816;12.448;2022-12-11T18:46:09;5.55;;;1.17;;
69253;SDS011;56364;41.816;12.448;2022-12-11T18:48:37;7.38;;;2.10;;
69253;SDS011;56364;41.816;12.448;2022-12-11T18:51:06;5.75;;;1.30;;
69253;SDS011;56364;41.816;12.448;2022-12-11T18:53:33;6.78;;;1.63;;
69253;SDS011;56364;41.816;12.448;2022-12-11T18:56:03;8.45;;;1.60;;
69253;SDS011;56364;41.816;12.448;2022-12-11T18:58:30;4.68;;;1.35;;
69253;SDS011;56364;41.816;12.448;2022-12-11T19:01:04;5.72;;;1.73;;
69253;SDS011;56364;41.816;12.448;2022-12-11T19:03:31;4.35;;;1.40;;
69253;SDS011;56364;41.816;12.448;2022-12-11T19:06:04;6.03;;;1.83;;
69253;SDS011;56364;41.816;12.448;2022-12-11T19:10:57;9.25;;;1.33;;
69253;SDS011;56364;41.816;12.448;2022-12-11T19:13:23;9.90;;;1.95;;
69253;SDS011;56364;41.816;12.448;2022-12-11T19:15:55;9.27;;;2.33;;
69253;SDS011;56364;41.816;12.448;2022-12-11T19:18:24;8.93;;;2.20;;
69253;SDS011;56364;41.816;12.448;2022-12-11T19:20:58;8.43;;;2.40;;
69253;SDS011;56364;41.816;12.448;2022-12-11T19:23:24;11.57;;;2.25;;
69253;SDS011;56364;41.816;12.448;2022-12-11T19:25:52;11.80;;;2.20;;
69253;SDS011;56364;41.816;12.448;2022-12-11T19:28:18;6.57;;;2.50;;
69253;SDS011;56364;41.816;12.448;2022-12-11T19:30:52;11.70;;;2.33;;
69253;SDS011;56364;41.816;12.448;2022-12-11T19:33:21;17.05;;;2.70;;
69253;SDS011;56364;41.816;12.448;2022-12-11T19:36:04;11.50;;;2.50;;
69253;SDS011;56364;41.816;12.448;2022-12-11T19:38:32;7.32;;;1.48;;
69253;SDS011;56364;41.816;12.448;2022-12-11T19:41:03;13.43;;;2.72;;
69253;SDS011;56364;41.816;12.448;2022-12-11T21:48:03;9.35;;;2.97;;
69253;SDS011;56364;41.816;12.448;2022-12-11T21:50:30;6.88;;;2.50;;
69253;SDS011;56364;41.816;12.448;2022-12-11T21:53:34;15.48;;;3.35;;
69253;SDS011;56364;41.816;12.448;2022-12-11T21:56:13;7.22;;;2.70;;
69253;SDS011;56364;41.816;12.448;2022-12-11T21:58:40;10.07;;;2.80;;
69253;SDS011;56364;41.816;12.448;2022-12-11T22:01:12;10.52;;;3.28;;
69253;SDS011;56364;41.816;12.448;2022-12-11T22:03:40;11.20;;;3.13;;
69253;SDS011;56364;41.816;12.448;2022-12-11T22:06:06;6.03;;;3.25;;
69253;SDS011;56364;41.816;12.448;2022-12-11T22:10:58;9.50;;;4.22;;
69253;SDS011;56364;41.816;12.448;2022-12-11T22:13:25;9.35;;;3.28;;
69253;SDS011;56364;41.816;12.448;2022-12-11T22:15:51;9.80;;;3.95;;
69253;SDS011;56364;41.816;12.448;2022-12-11T22:18:19;11.63;;;4.60;;
69253;SDS011;56364;41.816;12.448;2022-12-11T22:20:45;8.25;;;4.00;;
69253;SDS011;56364;41.816;12.448;2022-12-11T22:23:11;13.85;;;4.53;;
69253;SDS011;56364;41.816;12.448;2022-12-11T22:25:38;11.55;;;3.90;;
69253;SDS011;56364;41.816;12.448;2022-12-11T22:28:05;12.63;;;4.15;;
69253;SDS011;56364;41.816;12.448;2022-12-11T22:30:32;10.48;;;4.57;;
69253;SDS011;56364;41.816;12.448;2022-12-11T22:33:08;13.48;;;4.20;;
69253;SDS011;56364;41.816;12.448;2022-12-11T22:35:34;14.90;;;5.00;;
69253;SDS011;56364;41.816;12.448;2022-12-11T22:38:01;13.10;;;4.28;;
69253;SDS011;56364;41.816;12.448;2022-12-11T22:40:28;14.65;;;3.63;;
69253;SDS011;56364;41.816;12.448;2022-12-11T22:42:55;10.52;;;3.45;;
69253;SDS011;56364;41.816;12.448;2022-12-11T22:48:18;8.35;;;3.33;;
69253;SDS011;56364;41.816;12.448;2022-12-11T22:50:52;12.90;;;3.95;;
69253;SDS011;56364;41.816;12.448;2022-12-11T22:53:19;16.23;;;4.43;;
69253;SDS011;56364;41.816;12.448;2022-12-11T22:55:53;10.20;;;4.18;;
69253;SDS011;56364;41.816;12.448;2022-12-11T22:58:21;11.93;;;4.65;;
69253;SDS011;56364;41.816;12.448;2022-12-11T23:00:50;12.98;;;3.60;;
69253;SDS011;56364;41.816;12.448;2022-12-11T23:03:21;20.05;;;4.65;;
69253;SDS011;56364;41.816;12.448;2022-12-11T23:05:49;13.93;;;4.22;;
69253;SDS011;56364;41.816;12.448;2022-12-11T23:08:18;11.35;;;4.15;;
69253;SDS011;56364;41.816;12.448;2022-12-11T23:10:50;9.23;;;4.10;;
69253;SDS011;56364;41.816;12.448;2022-12-11T23:13:17;7.78;;;3.70;;
69253;SDS011;56364;41.816;12.448;2022-12-11T23:21:23;13.65;;;2.78;;
69253;SDS011;56364;41.816;12.448;2022-12-11T23:23:53;14.27;;;4.10;;
69253;SDS011;56364;41.816;12.448;2022-12-11T23:26:30;9.98;;;3.55;;
69253;SDS011;56364;41.816;12.448;2022-12-11T23:29:00;10.38;;;4.40;;
69253;SDS011;56364;41.816;12.448;2022-12-11T23:31:48;11.57;;;4.53;;
69253;SDS011;56364;41.816;12.448;2022-12-11T23:39:56;10.85;;;4.28;;
69253;SDS011;56364;41.816;12.448;2022-12-11T23:42:23;20.45;;;5.78;;
69253;SDS011;56364;41.816;12.448;2022-12-11T23:45:13;15.10;;;4.90;;
69253;SDS011;56364;41.816;12.448;2022-12-11T23:56:03;11.23;;;4.03;;
69253;SDS011;56364;41.816;12.448;2022-12-11T23:58:33;11.50;;;4.15;;
